Time;durP1;ratioP1;P1;durP2;ratioP2;P2;SDS_P1;SDS_P2;PMS_P1;PMS_P2;Temp;Humidity;BMP_temperature;BMP_pressure;BME280_temperature;BME280_humidity;BME280_pressure;Samples;Min_cycle;Max_cycle;Signal;HPM_P1;HPM_P2
2021/01/20 00:01:38;;;;;;;1.75;1.20;;;;;;;18.71;49.18;100004.56;5073514;28;20032;-72
2021/01/20 00:04:04;;;;;;;2.78;1.10;;;;;;;18.74;49.11;100012.38;5068245;28;20098;-71
2021/01/20 00:06:29;;;;;;;2.35;1.33;;;;;;;18.74;49.34;100015.00;5055391;28;20131;-72
2021/01/20 00:08:54;;;;;;;2.90;1.17;;;;;;;18.70;49.37;100006.31;5041402;28;20032;-72
2021/01/20 00:11:20;;;;;;;2.40;1.48;;;;;;;18.72;49.24;99996.69;5033407;28;21770;-72
2021/01/20 00:13:45;;;;;;;2.65;1.73;;;;;;;18.74;49.04;100002.75;5017101;28;20428;-72
2021/01/20 00:16:11;;;;;;;2.13;1.15;;;;;;;18.73;49.09;99997.56;5041318;28;20028;-72
2021/01/20 00:18:36;;;;;;;1.50;1.20;;;;;;;18.67;49.19;99993.31;5071476;28;20399;-72
2021/01/20 00:21:02;;;;;;;2.05;1.40;;;;;;;18.71;49.20;99984.47;5055871;28;20043;-71
2021/01/20 00:23:27;;;;;;;3.58;1.23;;;;;;;18.68;49.04;99981.94;5059893;28;20086;-72
2021/01/20 00:25:53;;;;;;;3.90;1.50;;;;;;;18.72;49.12;99994.06;5064751;28;20060;-72
2021/01/20 00:28:18;;;;;;;2.70;1.50;;;;;;;18.67;49.12;99995.94;5059783;28;20402;-72
2021/01/20 00:30:43;;;;;;;1.73;1.30;;;;;;;18.68;49.13;100002.03;5055813;28;20044;-72
2021/01/20 00:33:09;;;;;;;1.60;1.10;;;;;;;18.70;49.27;99984.50;5050037;28;20035;-71
2021/01/20 00:35:34;;;;;;;1.50;1.20;;;;;;;18.70;49.05;99985.38;5062378;28;20060;-72
2021/01/20 00:38:00;;;;;;;2.17;1.20;;;;;;;18.69;49.14;99982.81;5078027;28;20028;-72
2021/01/20 00:40:25;;;;;;;1.60;1.00;;;;;;;18.69;48.91;99985.44;5065644;28;20028;-72
2021/01/20 00:42:50;;;;;;;2.90;1.38;;;;;;;18.67;49.25;99977.59;5074788;28;20040;-72
2021/01/20 00:45:16;;;;;;;2.25;1.42;;;;;;;18.64;49.34;99979.41;5046464;28;20036;-72
2021/01/20 00:47:41;;;;;;;2.03;1.60;;;;;;;18.67;49.07;99981.97;5058022;28;20032;-71
2021/01/20 00:50:07;;;;;;;3.75;1.40;;;;;;;18.65;49.07;99973.28;5073110;28;20475;-71
2021/01/20 00:52:33;;;;;;;4.05;1.50;;;;;;;18.62;49.22;99963.72;5073160;28;20085;-71
2021/01/20 00:54:58;;;;;;;2.70;1.60;;;;;;;18.63;49.17;99973.31;5071155;28;20460;-72
2021/01/20 00:57:23;;;;;;;2.70;1.58;;;;;;;18.65;49.21;99978.50;5049893;28;20108;-72
2021/01/20 00:59:49;;;;;;;3.17;1.35;;;;;;;18.64;49.16;99972.41;5056060;28;20048;-72
2021/01/20 01:02:15;;;;;;;2.00;1.48;;;;;;;18.61;49.06;99962.00;5055151;28;20422;-71
2021/01/20 01:04:40;;;;;;;1.92;1.42;;;;;;;18.60;48.98;99968.13;5043943;28;20056;-72
2021/01/20 01:07:06;;;;;;;1.65;1.15;;;;;;;18.62;49.09;99961.09;5055282;28;20036;-71
2021/01/20 01:09:31;;;;;;;2.42;1.50;;;;;;;18.59;49.13;99955.91;5057452;28;20060;-72
2021/01/20 01:11:56;;;;;;;2.65;1.20;;;;;;;18.60;48.83;99955.03;5062396;28;20103;-72
2021/01/20 01:14:22;;;;;;;1.92;1.10;;;;;;;18.56;49.05;99935.03;5061092;28;20052;-72
2021/01/20 01:16:47;;;;;;;2.00;1.45;;;;;;;18.61;49.11;99954.13;5074827;28;20393;-72
2021/01/20 01:19:12;;;;;;;2.15;1.27;;;;;;;18.61;49.13;99946.28;5054739;28;20032;-78
2021/01/20 01:21:38;;;;;;;1.75;1.30;;;;;;;18.58;49.04;99943.72;5061065;28;20037;-78
2021/01/20 01:24:03;;;;;;;3.15;1.73;;;;;;;18.60;48.99;99946.31;5057476;28;20107;-77
2021/01/20 01:26:28;;;;;;;2.10;1.17;;;;;;;18.58;48.93;99941.09;5053484;28;20032;-77
2021/01/20 01:28:54;;;;;;;2.70;1.60;;;;;;;18.60;49.13;99943.69;5051661;28;20045;-77
2021/01/20 01:31:19;;;;;;;3.40;1.50;;;;;;;18.55;49.02;99926.31;5035048;28;20770;-78
2021/01/20 01:33:44;;;;;;;1.70;1.23;;;;;;;18.57;49.02;99942.81;5032806;28;20033;-78
2021/01/20 01:36:10;;;;;;;2.88;1.20;;;;;;;18.57;48.93;99928.84;5053843;28;20025;-78
2021/01/20 01:38:35;;;;;;;2.40;1.50;;;;;;;18.55;49.25;99923.69;5055411;28;20043;-78
2021/01/20 01:41:01;;;;;;;2.13;1.52;;;;;;;18.56;48.95;99914.06;5053877;28;20057;-78
2021/01/20 01:43:26;;;;;;;1.90;1.33;;;;;;;18.53;49.10;99912.38;5060964;28;20440;-78
2021/01/20 01:45:52;;;;;;;3.15;1.77;;;;;;;18.51;49.01;99916.78;5045523;28;20051;-78
2021/01/20 01:48:17;;;;;;;2.22;1.52;;;;;;;18.56;48.82;99937.63;5056400;28;20382;-78
2021/01/20 01:50:43;;;;;;;2.33;1.63;;;;;;;18.52;49.05;99928.97;5055360;28;20025;-77
2021/01/20 01:53:09;;;;;;;3.20;1.80;;;;;;;18.53;48.89;99922.84;5055477;28;20033;-78
2021/01/20 01:55:36;;;;;;;3.00;1.50;;;;;;;18.53;49.01;99907.13;5033721;28;20051;-78
2021/01/20 01:58:01;;;;;;;2.20;1.45;;;;;;;18.52;48.81;99908.03;5062727;28;20075;-77
2021/01/20 02:00:27;;;;;;;2.33;1.70;;;;;;;18.52;48.94;99912.41;5042376;28;20064;-77
2021/01/20 02:02:52;;;;;;;2.50;1.48;;;;;;;18.51;48.88;99902.81;5036729;28;20033;-77
2021/01/20 02:05:18;;;;;;;2.78;1.80;;;;;;;18.51;48.98;99918.53;5046002;28;20044;-77
2021/01/20 02:07:45;;;;;;;1.92;1.48;;;;;;;18.52;48.85;99896.69;5063040;28;20386;-78
2021/01/20 02:10:11;;;;;;;2.25;1.77;;;;;;;18.49;49.07;99896.75;5062342;28;20036;-72
2021/01/20 02:12:39;;;;;;;2.53;1.80;;;;;;;18.50;48.99;99896.72;5023242;28;20037;-72
2021/01/20 02:15:17;;;;;;;2.67;1.90;;;;;;;18.48;48.93;99898.50;5054780;28;20028;-72
2021/01/20 02:18:09;;;;;;;2.35;1.42;;;;;;;18.46;48.78;99894.19;5056066;28;20356;-71
2021/01/20 02:20:50;;;;;;;2.33;1.50;;;;;;;18.44;48.97;99896.81;5067164;28;20021;-71
2021/01/20 02:23:18;;;;;;;3.10;1.70;;;;;;;18.47;48.85;99870.59;5066377;28;20067;-72
2021/01/20 02:26:12;;;;;;;2.45;1.40;;;;;;;18.49;49.05;99878.41;5056065;28;20084;-72
2021/01/20 02:29:01;;;;;;;2.47;1.42;;;;;;;18.44;49.20;99870.66;5053972;28;20037;-72
2021/01/20 02:31:28;;;;;;;4.97;1.52;;;;;;;18.47;48.92;99873.22;5054401;28;20036;-72
2021/01/20 02:33:59;;;;;;;3.00;1.70;;;;;;;18.45;49.08;99864.53;5052758;28;20057;-72
2021/01/20 02:36:24;;;;;;;3.72;1.65;;;;;;;18.45;49.00;99863.66;5050949;28;20029;-72
2021/01/20 02:38:51;;;;;;;1.90;1.60;;;;;;;18.46;49.12;99854.91;5042804;28;20029;-72
2021/01/20 02:41:29;;;;;;;2.00;1.60;;;;;;;18.46;49.05;99873.22;5055691;28;20546;-72
2021/01/20 02:44:00;;;;;;;2.65;1.70;;;;;;;18.46;48.98;99866.25;5041986;28;20017;-72
2021/01/20 02:46:26;;;;;;;1.75;1.27;;;;;;;18.42;48.84;99854.13;5063486;28;20542;-72
2021/01/20 02:48:53;;;;;;;2.15;1.45;;;;;;;18.44;48.94;99854.94;5036068;28;20033;-72
2021/01/20 02:51:28;;;;;;;2.92;1.92;;;;;;;18.44;48.93;99848.84;5048713;28;20025;-72
2021/01/20 02:53:56;;;;;;;3.78;1.50;;;;;;;18.42;48.90;99845.41;5051954;28;20037;-72
2021/01/20 02:56:24;;;;;;;2.75;1.75;;;;;;;18.42;48.84;99840.19;5052629;28;20039;-72
2021/01/20 02:58:52;;;;;;;2.63;1.70;;;;;;;18.42;48.72;99840.19;5059920;28;20028;-72
2021/01/20 03:01:19;;;;;;;2.33;1.65;;;;;;;18.44;48.86;99838.38;5052988;28;20395;-72
2021/01/20 03:03:47;;;;;;;2.33;2.08;;;;;;;18.40;48.92;99826.25;5057148;28;20070;-72
2021/01/20 03:06:16;;;;;;;2.20;1.60;;;;;;;18.41;48.84;99833.22;5032787;28;20021;-72
2021/01/20 03:08:42;;;;;;;2.33;1.83;;;;;;;18.39;48.70;99825.41;5042795;28;20039;-72
2021/01/20 03:11:08;;;;;;;2.45;1.92;;;;;;;18.42;48.74;99840.19;5058423;28;20078;-72
2021/01/20 03:13:37;;;;;;;2.65;1.50;;;;;;;18.40;48.82;99818.41;5053429;28;20044;-71
2021/01/20 03:16:04;;;;;;;2.35;1.67;;;;;;;18.42;48.87;99832.34;5046255;28;20029;-71
2021/01/20 03:18:29;;;;;;;2.60;1.90;;;;;;;18.41;48.76;99823.63;5055601;28;20175;-72
2021/01/20 03:20:55;;;;;;;3.15;1.63;;;;;;;18.41;48.82;99812.28;5051543;28;20389;-72
2021/01/20 03:23:20;;;;;;;1.73;1.63;;;;;;;18.36;48.83;99817.59;5061050;28;20142;-72
2021/01/20 03:25:45;;;;;;;1.95;1.45;;;;;;;18.38;48.94;99814.97;5055702;28;20029;-72
2021/01/20 03:28:11;;;;;;;1.77;1.25;;;;;;;18.42;48.93;99833.19;5054709;28;20474;-71
2021/01/20 03:30:36;;;;;;;3.25;1.67;;;;;;;18.39;48.56;99832.38;5036067;28;20060;-72
2021/01/20 03:33:01;;;;;;;2.15;1.80;;;;;;;18.38;48.79;99817.56;5046714;28;20056;-72
2021/01/20 03:35:27;;;;;;;2.65;1.98;;;;;;;18.37;48.81;99824.56;5066118;28;20033;-72
2021/01/20 03:37:52;;;;;;;2.05;1.58;;;;;;;18.37;48.99;99821.94;5057803;28;20036;-72
2021/01/20 03:40:18;;;;;;;2.55;1.58;;;;;;;18.35;48.81;99804.53;5073659;28;20032;-71
2021/01/20 03:42:43;;;;;;;2.58;1.85;;;;;;;18.32;48.88;99799.34;5034068;28;20098;-72
2021/01/20 03:45:09;;;;;;;2.83;1.70;;;;;;;18.38;48.86;99809.72;5051142;28;20036;-72
2021/01/20 03:47:34;;;;;;;1.98;1.30;;;;;;;18.36;48.83;99809.75;5051045;28;20033;-72
2021/01/20 03:50:00;;;;;;;1.98;1.58;;;;;;;18.32;48.88;99797.59;5056117;28;20020;-72
2021/01/20 03:52:25;;;;;;;2.75;1.80;;;;;;;18.35;49.02;99799.31;5043713;28;20064;-72
2021/01/20 03:54:50;;;;;;;3.22;1.73;;;;;;;18.35;48.96;99796.69;5036602;28;20048;-72
2021/01/20 03:57:16;;;;;;;2.33;1.80;;;;;;;18.30;48.95;99790.72;5052666;28;20071;-71
2021/01/20 03:59:41;;;;;;;2.30;1.38;;;;;;;18.34;49.06;99794.97;5051059;28;20045;-78
2021/01/20 04:02:06;;;;;;;2.38;1.70;;;;;;;18.34;49.14;99803.69;5055826;28;20033;-78
2021/01/20 04:04:32;;;;;;;3.55;1.67;;;;;;;18.31;48.90;99781.94;5032319;28;20398;-78
2021/01/20 04:07:01;;;;;;;2.72;2.10;;;;;;;18.31;48.98;99780.19;5031944;28;20044;-78
2021/01/20 04:09:26;;;;;;;2.53;1.90;;;;;;;18.31;49.29;99780.19;5050633;28;20028;-77
2021/01/20 04:11:51;;;;;;;1.92;1.65;;;;;;;18.33;49.13;99772.28;5046481;28;20170;-78
2021/01/20 04:14:17;;;;;;;3.13;2.58;;;;;;;18.29;49.12;99783.75;5032936;28;20026;-78
2021/01/20 04:16:43;;;;;;;2.55;1.83;;;;;;;18.33;48.99;99770.53;5052853;28;20032;-78
2021/01/20 04:19:08;;;;;;;3.08;2.15;;;;;;;18.31;49.04;99767.09;5052625;28;20453;-78
2021/01/20 04:21:33;;;;;;;2.47;1.75;;;;;;;18.34;49.07;99771.41;5040673;28;20167;-77
2021/01/20 04:23:59;;;;;;;1.73;1.55;;;;;;;18.29;49.13;99763.66;5050673;28;20025;-78
2021/01/20 04:26:24;;;;;;;2.08;1.20;;;;;;;18.29;48.91;99765.44;5033162;28;20025;-78
2021/01/20 04:28:49;;;;;;;3.25;2.03;;;;;;;18.31;49.10;99763.63;5032348;28;20487;-77
2021/01/20 04:31:15;;;;;;;2.30;1.77;;;;;;;18.31;48.94;99747.91;5053057;28;20114;-77
2021/01/20 04:33:40;;;;;;;1.77;1.40;;;;;;;18.31;48.91;99747.91;5053256;28;20048;-78
2021/01/20 04:36:07;;;;;;;2.88;2.10;;;;;;;18.28;48.91;99737.53;5049819;28;20033;-77
2021/01/20 04:38:33;;;;;;;2.17;1.70;;;;;;;18.29;48.98;99742.75;5031767;28;20033;-78
2021/01/20 04:40:58;;;;;;;2.53;2.08;;;;;;;18.30;48.91;99726.16;5048129;28;20035;-77
2021/01/20 04:43:24;;;;;;;2.70;1.65;;;;;;;18.25;48.92;99730.59;5051729;28;20099;-78
2021/01/20 04:45:51;;;;;;;2.70;1.70;;;;;;;18.26;48.90;99728.84;5050918;28;20040;-78
2021/01/20 04:48:19;;;;;;;2.40;1.65;;;;;;;18.28;48.91;99724.44;5051596;28;20057;-78
2021/01/20 04:50:46;;;;;;;2.20;1.70;;;;;;;18.28;48.92;99727.06;5053023;28;20020;-78
2021/01/20 04:53:13;;;;;;;7.72;1.60;;;;;;;18.28;49.05;99721.84;5068665;28;20052;-78
2021/01/20 04:55:41;;;;;;;3.42;1.40;;;;;;;18.27;49.12;99710.50;5049360;28;20053;-76
2021/01/20 04:58:09;;;;;;;1.85;1.65;;;;;;;18.36;48.74;99719.91;5038943;28;20040;-72
2021/01/20 05:00:36;;;;;;;4.20;2.00;;;;;;;18.36;48.66;99715.53;5051747;28;20021;-72
2021/01/20 05:03:04;;;;;;;2.35;1.90;;;;;;;18.50;48.38;99705.59;5051223;28;20505;-71
2021/01/20 05:05:30;;;;;;;3.63;1.42;;;;;;;18.67;48.05;99709.63;5048226;28;20021;-71
2021/01/20 05:07:55;;;;;;;2.92;1.80;;;;;;;18.68;48.33;99706.97;5067575;28;20078;-77
2021/01/20 05:10:20;;;;;;;3.42;2.42;;;;;;;18.67;47.96;99702.63;5053565;28;20090;-78
2021/01/20 05:12:45;;;;;;;1.60;1.38;;;;;;;18.77;47.77;99693.66;5033707;28;20083;-71
2021/01/20 05:15:15;;;;;;;4.57;1.80;;;;;;;18.83;47.75;99696.09;5058182;28;20048;-71
2021/01/20 05:18:06;;;;;;;2.20;1.88;;;;;;;18.79;47.95;99684.00;5053105;28;20471;-71
2021/01/20 05:20:36;;;;;;;1.55;1.30;;;;;;;18.83;47.83;99690.00;5070897;28;20033;-71
2021/01/20 05:23:06;;;;;;;2.10;1.58;;;;;;;18.96;47.69;99693.19;5019894;28;20495;-71
2021/01/20 05:25:48;;;;;;;1.58;1.40;;;;;;;18.95;47.84;99691.50;5054663;28;20432;-74
2021/01/20 05:28:22;;;;;;;2.40;1.80;;;;;;;18.92;47.73;99695.91;5037466;28;20527;-72
2021/01/20 05:30:52;;;;;;;1.73;1.27;;;;;;;18.97;47.62;99682.66;5056586;28;20036;-72
2021/01/20 05:33:27;;;;;;;2.25;1.55;;;;;;;19.02;47.69;99679.94;5073080;28;20043;-72
2021/01/20 05:36:13;;;;;;;2.28;1.77;;;;;;;18.95;47.90;99688.88;5054675;28;20383;-72
2021/01/20 05:38:42;;;;;;;2.38;1.55;;;;;;;18.96;47.76;99693.19;5031735;28;20033;-78
2021/01/20 05:41:20;;;;;;;1.77;1.33;;;;;;;18.95;47.78;99686.25;5048068;28;20542;-78
2021/01/20 05:43:47;;;;;;;2.15;1.50;;;;;;;18.99;47.81;99686.13;5051319;28;20071;-78
2021/01/20 05:46:12;;;;;;;1.50;1.10;;;;;;;19.05;47.43;99677.25;5053825;28;20028;-78
2021/01/20 05:48:48;;;;;;;2.78;1.73;;;;;;;19.10;47.36;99691.06;5039395;28;20041;-78
2021/01/20 05:51:15;;;;;;;1.67;1.50;;;;;;;19.04;47.70;99680.78;5041102;28;20025;-78
2021/01/20 05:53:48;;;;;;;2.15;1.45;;;;;;;19.03;47.61;99679.03;5056524;28;20039;-79
2021/01/20 05:56:15;;;;;;;2.05;1.40;;;;;;;19.05;47.55;99672.00;5071910;28;20063;-78
2021/01/20 05:58:41;;;;;;;4.22;1.40;;;;;;;19.06;47.57;99671.97;5058627;28;20090;-77
2021/01/20 06:01:10;;;;;;;2.03;1.52;;;;;;;19.06;48.04;99668.50;5053861;28;20028;-79
2021/01/20 06:03:36;;;;;;;2.40;1.58;;;;;;;19.03;47.76;99669.44;5075381;28;20027;-74
2021/01/20 06:06:06;;;;;;;1.50;1.23;;;;;;;19.00;48.06;99663.41;5086730;28;21110;-78
2021/01/20 06:08:33;;;;;;;2.33;1.60;;;;;;;19.13;47.42;99665.66;5058183;28;20109;-78
2021/01/20 06:10:59;;;;;;;2.53;1.63;;;;;;;19.15;47.76;99658.63;5057154;28;20032;-78
2021/01/20 06:13:25;;;;;;;2.28;1.45;;;;;;;19.06;47.81;99652.78;5045499;28;20111;-78
2021/01/20 06:15:53;;;;;;;2.13;1.27;;;;;;;19.10;48.11;99652.63;5066658;28;20111;-78
2021/01/20 06:18:23;;;;;;;2.30;1.52;;;;;;;19.15;47.64;99656.00;5052697;28;20027;-78
2021/01/20 06:20:53;;;;;;;1.95;1.20;;;;;;;19.09;48.01;99644.81;5046525;28;20017;-78
2021/01/20 06:23:24;;;;;;;2.35;1.40;;;;;;;19.12;48.01;99650.84;5069175;28;20038;-78
2021/01/20 06:25:59;;;;;;;1.95;1.60;;;;;;;19.18;47.96;99653.31;5069495;28;20024;-77
2021/01/20 06:28:25;;;;;;;2.00;1.65;;;;;;;19.11;47.65;99632.53;5046148;28;20028;-78
2021/01/20 06:30:52;;;;;;;2.30;1.17;;;;;;;19.11;48.40;99641.25;5050091;28;20363;-78
2021/01/20 06:33:20;;;;;;;2.10;1.60;;;;;;;19.17;47.76;99646.34;5065923;28;20028;-78
2021/01/20 06:35:48;;;;;;;1.55;1.30;;;;;;;19.21;47.57;99639.28;5066769;28;20032;-78
2021/01/20 06:38:28;;;;;;;1.30;1.10;;;;;;;19.15;47.87;99637.66;5063404;28;20029;-72
2021/01/20 06:40:59;;;;;;;3.13;1.42;;;;;;;19.19;47.88;99646.31;5063172;28;20408;-72
2021/01/20 06:43:33;;;;;;;1.50;1.25;;;;;;;19.25;47.57;99641.75;5065857;28;20031;-72
2021/01/20 06:46:10;;;;;;;2.40;1.48;;;;;;;19.13;47.88;99615.88;5034652;28;20033;-72
2021/01/20 06:48:53;;;;;;;2.50;1.23;;;;;;;19.17;47.85;99633.25;5051281;28;20035;-72
2021/01/20 06:51:19;;;;;;;;;;;;;;;19.16;47.40;99638.53;5075786;28;20035;-72
2021/01/20 06:54:08;;;;;;;3.10;1.38;;;;;;;19.07;47.32;99642.25;5077898;28;19912;-72
2021/01/20 06:56:34;;;;;;;2.97;1.67;;;;;;;19.00;47.72;99630.19;5076324;28;20024;-73
2021/01/20 06:59:22;;;;;;;3.55;2.20;;;;;;;18.96;48.08;99620.69;5066101;28;20091;-72
2021/01/20 07:02:02;;;;;;;2.35;1.58;;;;;;;18.90;48.34;99624.34;5072195;28;20028;-72
2021/01/20 07:04:36;;;;;;;2.72;2.22;;;;;;;18.88;48.32;99628.75;5068697;28;20025;-72
2021/01/20 07:07:01;;;;;;;2.92;1.90;;;;;;;18.86;48.46;99627.06;5069875;28;20055;-72
2021/01/20 07:09:49;;;;;;;3.08;1.95;;;;;;;18.82;48.67;99621.06;5069281;28;20470;-72
2021/01/20 07:12:25;;;;;;;3.80;1.63;;;;;;;18.81;48.50;99623.72;5059215;28;20061;-72
2021/01/20 07:14:55;;;;;;;3.17;1.80;;;;;;;18.72;48.76;99614.31;5056235;28;20044;-72
2021/01/20 07:17:22;;;;;;;5.88;2.22;;;;;;;18.80;48.87;99615.00;5068745;28;20548;-72
2021/01/20 07:19:49;;;;;;;4.07;2.58;;;;;;;18.80;48.93;99616.78;5067008;28;20032;-72
2021/01/20 07:22:16;;;;;;;2.72;1.60;;;;;;;18.79;48.71;99613.28;5074461;28;20032;-73
2021/01/20 07:24:42;;;;;;;6.13;1.67;;;;;;;18.80;48.75;99619.38;5082184;28;20111;-73
2021/01/20 07:27:12;;;;;;;3.30;1.88;;;;;;;18.76;48.56;99622.97;5076016;28;20115;-73
2021/01/20 07:29:38;;;;;;;6.03;1.80;;;;;;;18.81;48.46;99618.50;5063667;28;20966;-73
2021/01/20 07:32:04;;;;;;;4.80;1.98;;;;;;;18.82;48.47;99617.59;5052149;28;20024;-73
2021/01/20 07:34:43;;;;;;;3.10;1.67;;;;;;;18.99;48.22;99628.47;5061032;28;20132;-72
2021/01/20 07:37:18;;;;;;;2.42;1.92;;;;;;;19.01;48.21;99628.44;5071391;28;20538;-73
2021/01/20 07:39:45;;;;;;;3.08;2.08;;;;;;;18.97;48.40;99624.16;5045291;28;20502;-72
2021/01/20 07:42:11;;;;;;;2.05;1.63;;;;;;;19.08;48.22;99624.78;5025433;28;20028;-72
2021/01/20 07:44:46;;;;;;;2.38;1.88;;;;;;;19.08;47.96;99611.69;5050266;28;20012;-73
2021/01/20 07:47:12;;;;;;;3.63;1.75;;;;;;;19.09;48.61;99623.84;5071341;28;20039;-72
2021/01/20 07:49:38;;;;;;;2.13;1.50;;;;;;;19.09;48.22;99615.97;5050569;28;20024;-72
2021/01/20 07:52:05;;;;;;;4.45;1.90;;;;;;;19.17;48.07;99619.28;5067957;28;20028;-73
2021/01/20 07:54:44;;;;;;;5.03;2.08;;;;;;;19.15;48.02;99621.06;5051593;28;20044;-73
2021/01/20 07:57:15;;;;;;;2.63;1.67;;;;;;;19.13;48.36;99623.72;5020145;28;20049;-73
2021/01/20 07:59:40;;;;;;;1.88;1.42;;;;;;;19.21;48.43;99634.03;5037283;28;20082;-72
2021/01/20 08:02:12;;;;;;;2.53;1.42;;;;;;;19.23;48.07;99625.19;5048561;28;20029;-73
2021/01/20 08:04:39;;;;;;;2.80;1.70;;;;;;;19.18;48.51;99629.72;5067371;28;20025;-73
2021/01/20 08:07:05;;;;;;;2.65;1.60;;;;;;;19.19;48.40;99628.81;5054343;28;20032;-73
2021/01/20 08:09:43;;;;;;;3.28;1.73;;;;;;;19.25;48.24;99628.63;5054634;28;20440;-73
2021/01/20 08:12:15;;;;;;;2.20;1.33;;;;;;;19.24;48.36;99621.69;5052610;28;20115;-73
2021/01/20 08:14:42;;;;;;;2.47;1.40;;;;;;;19.22;48.49;99620.00;5043850;28;20482;-73
2021/01/20 08:17:12;;;;;;;1.80;1.20;;;;;;;19.27;48.32;99618.13;5060504;28;20051;-79
2021/01/20 08:19:39;;;;;;;2.28;1.50;;;;;;;19.26;48.39;99622.50;5050083;28;20032;-79
2021/01/20 08:22:06;;;;;;;3.72;1.65;;;;;;;19.23;48.37;99625.19;5056551;28;20077;-79
2021/01/20 08:24:33;;;;;;;3.25;1.55;;;;;;;19.26;48.47;99611.16;5073544;28;20037;-79
2021/01/20 08:27:00;;;;;;;3.15;1.77;;;;;;;19.31;48.56;99616.28;5053424;28;20056;-79
2021/01/20 08:29:26;;;;;;;3.13;1.55;;;;;;;19.23;48.31;99606.84;5053449;28;20025;-79
2021/01/20 08:32:11;;;;;;;2.20;1.45;;;;;;;19.27;48.34;99624.22;5076582;28;20035;-79
2021/01/20 08:34:38;;;;;;;2.65;1.48;;;;;;;19.30;48.40;99618.03;5072666;28;20033;-78
2021/01/20 08:37:07;;;;;;;2.58;1.48;;;;;;;19.28;48.36;99617.22;5040770;28;20123;-78
2021/01/20 08:39:36;;;;;;;2.67;1.50;;;;;;;19.27;48.45;99626.84;5066027;28;20115;-78
2021/01/20 08:42:21;;;;;;;2.40;1.23;;;;;;;19.35;48.32;99620.50;5054782;28;20036;-79
2021/01/20 08:45:09;;;;;;;2.17;1.40;;;;;;;19.32;48.27;99628.50;5047522;28;20020;-79
2021/01/20 08:47:55;;;;;;;2.58;1.90;;;;;;;19.29;48.22;99629.44;5066809;28;20020;-79
2021/01/20 08:50:35;;;;;;;2.13;1.27;;;;;;;19.34;48.37;99619.69;5025089;28;20024;-78
2021/01/20 08:53:05;;;;;;;3.05;1.52;;;;;;;19.30;48.26;99615.41;5048685;28;20029;-79
2021/01/20 08:55:38;;;;;;;1.67;1.00;;;;;;;19.31;48.20;99630.25;5061566;28;20049;-78
2021/01/20 08:58:22;;;;;;;1.47;1.20;;;;;;;19.24;48.56;99626.06;5058304;28;20043;-79
2021/01/20 09:00:52;;;;;;;2.20;1.08;;;;;;;19.20;48.69;99625.31;5056376;28;20060;-79
2021/01/20 09:03:23;;;;;;;2.22;1.48;;;;;;;19.12;48.59;99618.53;5071003;28;20033;-79
2021/01/20 09:05:53;;;;;;;1.92;1.45;;;;;;;19.08;48.87;99617.78;5056631;28;20028;-79
2021/01/20 09:08:19;;;;;;;1.85;1.20;;;;;;;19.09;48.85;99629.09;5059064;28;20039;-79
2021/01/20 09:10:46;;;;;;;2.28;1.40;;;;;;;19.07;48.90;99625.66;5025441;28;20020;-79
2021/01/20 09:13:13;;;;;;;2.20;1.48;;;;;;;19.05;48.83;99627.47;5066008;28;20428;-79
2021/01/20 09:15:38;;;;;;;2.13;1.60;;;;;;;19.03;48.92;99622.25;5043243;28;20044;-79
2021/01/20 09:18:07;;;;;;;3.78;1.98;;;;;;;19.00;48.86;99618.84;5047702;28;20398;-79
2021/01/20 09:20:34;;;;;;;1.90;1.10;;;;;;;19.00;48.94;99619.72;5072241;28;20048;-79
2021/01/20 09:23:00;;;;;;;1.70;1.15;;;;;;;19.00;48.94;99629.34;5070307;28;20467;-78
2021/01/20 09:25:25;;;;;;;2.00;1.35;;;;;;;18.99;49.13;99627.63;5065604;28;20020;-79
2021/01/20 09:27:51;;;;;;;2.28;1.55;;;;;;;18.92;48.95;99624.31;5069604;28;20037;-78
2021/01/20 09:30:16;;;;;;;1.40;1.15;;;;;;;18.95;48.98;99629.47;5044545;28;20035;-79
2021/01/20 09:32:42;;;;;;;1.50;1.13;;;;;;;18.92;48.83;99616.44;5039733;28;20074;-79
2021/01/20 09:35:12;;;;;;;2.72;1.33;;;;;;;18.93;48.63;99618.19;5030375;28;20108;-79
2021/01/20 09:37:39;;;;;;;1.80;1.40;;;;;;;18.91;48.93;99619.97;5071709;28;20127;-79
2021/01/20 09:40:07;;;;;;;3.00;1.42;;;;;;;18.87;48.95;99613.06;5057954;28;20040;-79
2021/01/20 09:42:37;;;;;;;2.15;1.45;;;;;;;18.88;48.94;99620.03;5061513;28;20091;-79
2021/01/20 09:45:04;;;;;;;2.05;1.42;;;;;;;18.87;48.90;99613.06;5053026;28;20078;-79
2021/01/20 09:47:29;;;;;;;3.00;1.25;;;;;;;18.88;48.82;99620.91;5039696;28;20040;-79
2021/01/20 09:49:54;;;;;;;0.95;0.80;;;;;;;18.86;48.82;99614.84;5054464;28;20382;-79
2021/01/20 09:52:25;;;;;;;1.77;1.30;;;;;;;18.85;48.88;99617.50;5068499;28;20033;-79
2021/01/20 09:54:51;;;;;;;1.95;1.25;;;;;;;18.83;48.78;99617.53;5074242;28;20093;-79
2021/01/20 09:57:16;;;;;;;1.73;0.82;;;;;;;18.80;48.85;99622.88;5069068;28;20041;-79
2021/01/20 09:59:42;;;;;;;1.27;1.05;;;;;;;18.83;48.95;99614.06;5067474;28;20130;-78
2021/01/20 10:02:07;;;;;;;3.03;1.73;;;;;;;18.79;48.91;99609.81;5074386;28;20035;-79
2021/01/20 10:04:32;;;;;;;2.70;1.40;;;;;;;18.83;48.82;99616.66;5052281;28;20451;-78
2021/01/20 10:06:58;;;;;;;2.47;1.58;;;;;;;18.81;48.78;99606.25;5038610;28;20398;-78
2021/01/20 10:09:25;;;;;;;2.28;0.90;;;;;;;18.83;48.86;99614.06;5041561;28;20029;-78
2021/01/20 10:11:50;;;;;;;1.35;1.02;;;;;;;18.81;49.12;99602.78;5057545;28;20036;-78
2021/01/20 10:14:17;;;;;;;1.08;0.90;;;;;;;18.79;49.00;99605.44;5073357;28;20042;-78
2021/01/20 10:16:46;;;;;;;2.03;1.20;;;;;;;18.77;49.09;99594.13;5066969;28;20029;-78
2021/01/20 10:19:12;;;;;;;1.65;1.13;;;;;;;18.75;48.88;99595.94;5070743;28;20042;-78
2021/01/20 10:21:37;;;;;;;1.70;1.00;;;;;;;18.78;48.94;99593.22;5051182;28;20086;-78
2021/01/20 10:24:03;;;;;;;2.20;1.25;;;;;;;18.75;49.03;99589.81;5069832;28;20040;-78
2021/01/20 10:26:28;;;;;;;1.10;0.88;;;;;;;18.72;48.78;99582.91;5062608;28;20090;-78
2021/01/20 10:28:54;;;;;;;1.73;1.55;;;;;;;18.70;48.97;99578.59;5057430;28;20057;-78
2021/01/20 10:31:19;;;;;;;1.70;1.17;;;;;;;18.75;48.83;99587.22;5054972;28;20028;-78
2021/01/20 10:33:44;;;;;;;1.30;1.00;;;;;;;18.73;48.87;99584.63;5057903;28;20371;-78
2021/01/20 10:36:10;;;;;;;1.88;1.20;;;;;;;18.74;48.92;99572.38;5053170;28;20060;-78
2021/01/20 10:38:35;;;;;;;1.55;1.17;;;;;;;18.72;48.92;99572.44;5058049;28;20066;-78
2021/01/20 10:41:00;;;;;;;1.73;1.42;;;;;;;18.69;48.85;99564.69;5056329;28;20482;-78
2021/01/20 10:43:26;;;;;;;1.90;1.45;;;;;;;18.66;48.87;99562.13;5050284;28;20542;-78
2021/01/20 10:45:51;;;;;;;1.52;1.10;;;;;;;18.71;48.88;99564.59;5056794;28;20066;-78
2021/01/20 10:48:16;;;;;;;1.75;1.30;;;;;;;18.72;48.74;99559.34;5071063;28;20024;-78
2021/01/20 10:50:42;;;;;;;1.08;0.90;;;;;;;18.71;48.50;99559.38;5052157;28;20032;-73
2021/01/20 10:53:07;;;;;;;1.73;1.40;;;;;;;18.70;48.94;99560.28;5036752;28;20108;-73
2021/01/20 10:55:32;;;;;;;1.42;1.15;;;;;;;18.68;48.81;99543.75;5059265;28;20156;-73
2021/01/20 10:57:58;;;;;;;2.35;1.52;;;;;;;18.71;48.67;99556.75;5027086;28;20040;-73
2021/01/20 11:00:24;;;;;;;2.28;1.52;;;;;;;18.71;48.71;99544.53;5036546;28;20071;-73
2021/01/20 11:02:49;;;;;;;1.45;1.05;;;;;;;18.68;48.74;99539.38;5031402;28;20028;-73
2021/01/20 11:05:14;;;;;;;2.35;1.48;;;;;;;18.71;48.56;99531.44;5031145;28;20107;-73
2021/01/20 11:07:40;;;;;;;1.60;1.05;;;;;;;18.69;48.79;99522.78;5017622;28;20037;-73
2021/01/20 11:10:06;;;;;;;1.63;1.05;;;;;;;18.70;48.56;99526.22;5048494;28;20041;-73
2021/01/20 11:12:31;;;;;;;2.75;1.00;;;;;;;18.70;48.59;99518.38;5043919;28;20502;-78
2021/01/20 11:14:57;;;;;;;1.42;1.10;;;;;;;18.68;48.60;99520.19;5036032;28;20112;-78
2021/01/20 11:17:22;;;;;;;2.17;1.33;;;;;;;18.68;48.62;99521.06;5026731;28;20195;-78
2021/01/20 11:19:47;;;;;;;3.50;2.10;;;;;;;18.69;48.86;99516.69;5027700;28;20079;-78
2021/01/20 11:22:13;;;;;;;2.08;1.25;;;;;;;18.68;48.58;99523.69;5032114;28;20025;-78
2021/01/20 11:24:38;;;;;;;1.40;1.00;;;;;;;18.68;48.68;99523.69;5054576;28;20032;-78
2021/01/20 11:27:03;;;;;;;2.22;1.17;;;;;;;18.67;48.55;99524.56;5049547;28;20467;-78
2021/01/20 11:29:29;;;;;;;1.67;1.02;;;;;;;18.66;48.66;99520.22;5050795;28;20475;-78
2021/01/20 11:31:54;;;;;;;1.20;0.90;;;;;;;18.68;48.54;99523.69;5060679;28;20033;-79
2021/01/20 11:34:20;;;;;;;1.70;0.98;;;;;;;18.68;48.50;99520.19;5052149;28;20038;-77
2021/01/20 11:36:46;;;;;;;2.10;1.13;;;;;;;18.70;48.70;99516.63;5033642;28;20047;-76
2021/01/20 11:39:11;;;;;;;3.20;1.20;;;;;;;18.74;48.44;99518.25;5046835;28;20499;-73